ETH909 HAAB-GABS
Flight info
| Callsign | ETH909 |
|---|---|
| Flight time | N/A |
| Altitude | 38000 |
| Route | BRO3A BRO DCT KAFIA DCT IRAGA UB736 JOS UJ332 BDA UL683 TLE UA601 EBSUD A601 MINVO MINVO5D |
| Aircraft | B789/H-SDE1E2E3FGHIJ2J3J4J5M1RWXY/LB1D1 |
Departure
| Time | N/A |
|---|---|
| Airport | Addis Ababa Bole International Airport (HAAB) |
Arrival
| Time | 2026-05-05 16:39 |
|---|---|
| Airport | Modibo Keita International Airport (GABS) |
| Time | Latitude | Longitude | Altitude | Speed | Heading |
|---|---|---|---|---|---|
| 2026-05-05 15:47 | 10.47026 | -2.96061 | 37956 ft | 472 kts | 297° |
| 2026-05-05 15:48 | 10.49947 | -3.01988 | 37866 ft | 469 kts | 297° |
| 2026-05-05 15:48 | 10.52839 | -3.07899 | 37865 ft | 471 kts | 297° |
| 2026-05-05 15:49 | 10.55750 | -3.13866 | 37876 ft | 471 kts | 297° |
| 2026-05-05 15:49 | 10.58659 | -3.19833 | 37875 ft | 471 kts | 296° |
| 2026-05-05 15:50 | 10.61563 | -3.25793 | 37870 ft | 471 kts | 296° |
| 2026-05-05 15:50 | 10.64466 | -3.31756 | 37885 ft | 471 kts | 296° |
| 2026-05-05 15:51 | 10.67354 | -3.37692 | 37884 ft | 471 kts | 296° |
| 2026-05-05 15:51 | 10.70247 | -3.43641 | 37877 ft | 470 kts | 296° |
| 2026-05-05 15:52 | 10.73142 | -3.49596 | 37892 ft | 470 kts | 296° |
| 2026-05-05 15:52 | 10.76041 | -3.55558 | 37891 ft | 470 kts | 296° |
| 2026-05-05 15:53 | 10.78919 | -3.61480 | 37884 ft | 470 kts | 296° |
| 2026-05-05 15:53 | 10.81795 | -3.67406 | 37902 ft | 470 kts | 296° |
| 2026-05-05 15:54 | 10.84696 | -3.73391 | 37907 ft | 470 kts | 296° |
| 2026-05-05 15:54 | 10.87567 | -3.79325 | 37890 ft | 470 kts | 296° |
| 2026-05-05 15:55 | 10.90450 | -3.85283 | 37896 ft | 469 kts | 296° |
| 2026-05-05 15:55 | 10.93352 | -3.91279 | 37908 ft | 470 kts | 296° |
| 2026-05-05 15:56 | 10.96217 | -3.97200 | 37899 ft | 468 kts | 296° |
| 2026-05-05 15:56 | 10.99098 | -4.03148 | 37897 ft | 469 kts | 296° |
| 2026-05-05 15:57 | 11.01985 | -4.09116 | 37910 ft | 470 kts | 296° |
| 2026-05-05 15:57 | 11.04860 | -4.15069 | 37899 ft | 469 kts | 296° |
| 2026-05-05 15:58 | 11.07742 | -4.21040 | 37902 ft | 469 kts | 296° |
| 2026-05-05 15:58 | 11.10598 | -4.26962 | 37913 ft | 469 kts | 296° |
| 2026-05-05 15:59 | 11.13464 | -4.32923 | 37902 ft | 468 kts | 295° |
| 2026-05-05 15:59 | 11.16058 | -4.39001 | 37899 ft | 468 kts | 292° |
| 2026-05-05 16:00 | 11.18520 | -4.45146 | 37911 ft | 468 kts | 292° |
| 2026-05-05 16:00 | 11.20967 | -4.51288 | 37903 ft | 468 kts | 292° |
| 2026-05-05 16:01 | 11.23407 | -4.57383 | 37899 ft | 469 kts | 292° |
| 2026-05-05 16:01 | 11.25865 | -4.63539 | 37910 ft | 468 kts | 292° |
| 2026-05-05 16:02 | 11.28307 | -4.69666 | 37900 ft | 467 kts | 292° |
| 2026-05-05 16:02 | 11.30746 | -4.75798 | 37898 ft | 467 kts | 292° |
| 2026-05-05 16:03 | 11.33170 | -4.81898 | 37910 ft | 467 kts | 292° |
| 2026-05-05 16:03 | 11.35613 | -4.88044 | 37901 ft | 467 kts | 292° |
| 2026-05-05 16:04 | 11.38068 | -4.94224 | 37889 ft | 467 kts | 292° |
| 2026-05-05 16:04 | 11.40490 | -5.00328 | 37906 ft | 467 kts | 292° |
| 2026-05-05 16:05 | 11.42934 | -5.06487 | 37901 ft | 467 kts | 292° |
| 2026-05-05 16:05 | 11.45374 | -5.12644 | 37889 ft | 467 kts | 292° |
| 2026-05-05 16:06 | 11.47805 | -5.18783 | 37901 ft | 467 kts | 292° |
| 2026-05-05 16:06 | 11.50222 | -5.24888 | 37897 ft | 467 kts | 291° |
| 2026-05-05 16:07 | 11.52651 | -5.31032 | 37887 ft | 467 kts | 291° |
| 2026-05-05 16:07 | 11.55082 | -5.37178 | 37899 ft | 467 kts | 291° |
| 2026-05-05 16:08 | 11.57508 | -5.43328 | 37889 ft | 467 kts | 291° |
| 2026-05-05 16:08 | 11.59933 | -5.49478 | 37886 ft | 467 kts | 291° |
| 2026-05-05 16:09 | 11.62355 | -5.55623 | 37896 ft | 468 kts | 291° |
| 2026-05-05 16:09 | 11.64764 | -5.61737 | 37884 ft | 467 kts | 291° |
| 2026-05-05 16:10 | 11.67187 | -5.67891 | 37885 ft | 467 kts | 291° |
| 2026-05-05 16:10 | 11.69610 | -5.74051 | 37890 ft | 468 kts | 291° |
| 2026-05-05 16:11 | 11.72032 | -5.80208 | 37878 ft | 468 kts | 291° |
| 2026-05-05 16:12 | 11.76853 | -5.92485 | 37884 ft | 468 kts | 291° |
| 2026-05-05 16:13 | 11.82895 | -6.07896 | 37885 ft | 468 kts | 291° |
| 2026-05-05 16:13 | 11.85310 | -6.14060 | 37873 ft | 468 kts | 291° |
| 2026-05-05 16:14 | 11.90112 | -6.26355 | 37537 ft | 470 kts | 291° |
| 2026-05-05 16:15 | 11.92525 | -6.32524 | 36412 ft | 465 kts | 292° |
| 2026-05-05 16:15 | 11.94913 | -6.38634 | 35241 ft | 459 kts | 292° |
| 2026-05-05 16:16 | 11.97261 | -6.44652 | 34067 ft | 453 kts | 292° |
| 2026-05-05 16:16 | 11.99586 | -6.50619 | 32899 ft | 454 kts | 292° |
| 2026-05-05 16:17 | 12.01952 | -6.56685 | 31745 ft | 469 kts | 292° |
| 2026-05-05 16:17 | 12.03158 | -6.59784 | 31137 ft | 469 kts | 292° |
| 2026-05-05 16:18 | 12.05547 | -6.65927 | 29912 ft | 461 kts | 292° |
| 2026-05-05 16:18 | 12.06730 | -6.68967 | 29331 ft | 456 kts | 292° |
| 2026-05-05 16:18 | 12.09045 | -6.74920 | 28198 ft | 447 kts | 292° |
| 2026-05-05 16:19 | 12.10174 | -6.77830 | 27636 ft | 444 kts | 292° |
| 2026-05-05 16:19 | 12.11308 | -6.80749 | 27065 ft | 441 kts | 292° |
| 2026-05-05 16:19 | 12.13567 | -6.86566 | 25926 ft | 439 kts | 291° |
| 2026-05-05 16:20 | 12.15806 | -6.92339 | 24816 ft | 435 kts | 291° |
| 2026-05-05 16:20 | 12.18017 | -6.98046 | 23720 ft | 431 kts | 291° |
| 2026-05-05 16:21 | 12.20212 | -7.03716 | 22605 ft | 426 kts | 291° |
| 2026-05-05 16:22 | 12.23440 | -7.12047 | 21007 ft | 417 kts | 291° |
| 2026-05-05 16:22 | 12.25562 | -7.17537 | 19937 ft | 414 kts | 291° |
| 2026-05-05 16:23 | 12.27664 | -7.22984 | 18875 ft | 411 kts | 292° |
| 2026-05-05 16:23 | 12.28710 | -7.25692 | 18356 ft | 408 kts | 292° |
| 2026-05-05 16:23 | 12.30780 | -7.31051 | 17329 ft | 403 kts | 292° |
| 2026-05-05 16:24 | 12.31806 | -7.33709 | 16813 ft | 399 kts | 292° |
| 2026-05-05 16:24 | 12.32809 | -7.36308 | 16300 ft | 396 kts | 292° |
| 2026-05-05 16:24 | 12.34813 | -7.41504 | 15288 ft | 389 kts | 292° |
| 2026-05-05 16:25 | 12.35799 | -7.44061 | 14827 ft | 384 kts | 292° |
| 2026-05-05 16:25 | 12.37703 | -7.49006 | 14310 ft | 364 kts | 292° |
| 2026-05-05 16:25 | 12.38609 | -7.51376 | 14082 ft | 354 kts | 291° |
| 2026-05-05 16:26 | 12.39181 | -7.56206 | 13726 ft | 333 kts | 269° |
| 2026-05-05 16:26 | 12.38984 | -7.60761 | 13263 ft | 313 kts | 265° |
| 2026-05-05 16:27 | 12.38820 | -7.62958 | 12904 ft | 304 kts | 265° |
| 2026-05-05 16:27 | 12.38642 | -7.65084 | 12561 ft | 296 kts | 264° |
| 2026-05-05 16:27 | 12.38459 | -7.67166 | 12312 ft | 292 kts | 264° |
| 2026-05-05 16:27 | 12.38274 | -7.69218 | 12064 ft | 289 kts | 264° |
| 2026-05-05 16:28 | 12.38087 | -7.71260 | 11799 ft | 287 kts | 264° |
| 2026-05-05 16:28 | 12.37901 | -7.73285 | 11509 ft | 286 kts | 264° |
| 2026-05-05 16:28 | 12.37715 | -7.75312 | 11200 ft | 286 kts | 264° |
| 2026-05-05 16:28 | 12.37530 | -7.77310 | 10890 ft | 286 kts | 264° |
| 2026-05-05 16:29 | 12.37341 | -7.79336 | 10584 ft | 286 kts | 264° |
| 2026-05-05 16:29 | 12.37153 | -7.81357 | 10318 ft | 284 kts | 264° |
| 2026-05-05 16:29 | 12.36966 | -7.83361 | 10045 ft | 283 kts | 264° |
| 2026-05-05 16:29 | 12.36780 | -7.85361 | 9776 ft | 282 kts | 264° |
| 2026-05-05 16:30 | 12.36593 | -7.87356 | 9492 ft | 281 kts | 264° |
| 2026-05-05 16:30 | 12.36408 | -7.89338 | 9245 ft | 279 kts | 264° |
| 2026-05-05 16:30 | 12.36228 | -7.91264 | 8976 ft | 267 kts | 264° |
| 2026-05-05 16:30 | 12.36055 | -7.93102 | 8694 ft | 258 kts | 264° |
| 2026-05-05 16:31 | 12.35886 | -7.94908 | 8366 ft | 253 kts | 264° |
| 2026-05-05 16:31 | 12.35720 | -7.96689 | 7998 ft | 249 kts | 264° |
| 2026-05-05 16:31 | 12.35556 | -7.98439 | 7640 ft | 246 kts | 264° |
| 2026-05-05 16:31 | 12.35393 | -8.00180 | 7297 ft | 244 kts | 265° |
| 2026-05-05 16:32 | 12.35232 | -8.01892 | 6966 ft | 241 kts | 264° |
| 2026-05-05 16:32 | 12.35072 | -8.03599 | 6611 ft | 240 kts | 264° |
| 2026-05-05 16:32 | 12.34914 | -8.05283 | 6350 ft | 233 kts | 264° |
| 2026-05-05 16:32 | 12.34763 | -8.06888 | 6112 ft | 221 kts | 264° |
| 2026-05-05 16:33 | 12.34782 | -8.08434 | 5650 ft | 220 kts | 282° |
| 2026-05-05 16:33 | 12.35575 | -8.09721 | 5261 ft | 219 kts | 319° |
| 2026-05-05 16:33 | 12.36974 | -8.10345 | 5063 ft | 222 kts | 349° |
| 2026-05-05 16:33 | 12.38471 | -8.10636 | 4888 ft | 217 kts | 351° |
| 2026-05-05 16:34 | 12.39942 | -8.10927 | 4668 ft | 212 kts | 351° |
| 2026-05-05 16:34 | 12.41367 | -8.11213 | 4463 ft | 206 kts | 351° |
| 2026-05-05 16:34 | 12.42775 | -8.11307 | 4185 ft | 203 kts | 10° |
| 2026-05-05 16:34 | 12.44031 | -8.10692 | 4032 ft | 199 kts | 33° |
| 2026-05-05 16:35 | 12.45017 | -8.09713 | 3834 ft | 198 kts | 52° |
| 2026-05-05 16:35 | 12.45774 | -8.08558 | 3653 ft | 190 kts | 58° |
| 2026-05-05 16:35 | 12.46438 | -8.07449 | 3473 ft | 180 kts | 60° |
| 2026-05-05 16:35 | 12.47048 | -8.06392 | 3334 ft | 169 kts | 60° |
| 2026-05-05 16:36 | 12.47625 | -8.05362 | 3255 ft | 164 kts | 61° |
| 2026-05-05 16:36 | 12.48190 | -8.04338 | 3152 ft | 169 kts | 61° |
| 2026-05-05 16:36 | 12.48756 | -8.03326 | 2976 ft | 158 kts | 61° |
| 2026-05-05 16:36 | 12.49278 | -8.02362 | 2774 ft | 155 kts | 62° |
| 2026-05-05 16:37 | 12.49810 | -8.01388 | 2578 ft | 157 kts | 61° |
| 2026-05-05 16:37 | 12.50329 | -8.00386 | 2257 ft | 165 kts | 62° |
| 2026-05-05 16:37 | 12.50859 | -7.99398 | 2019 ft | 154 kts | 59° |
| 2026-05-05 16:37 | 12.51400 | -7.98473 | 1781 ft | 150 kts | 57° |
| 2026-05-05 16:38 | 12.51941 | -7.97543 | 1594 ft | 154 kts | 58° |
| 2026-05-05 16:38 | 12.52475 | -7.96587 | 1404 ft | 154 kts | 59° |
| 2026-05-05 16:38 | 12.52990 | -7.95647 | 1263 ft | 145 kts | 59° |
| 2026-05-05 16:38 | 12.53422 | -7.94876 | 1261 ft | 103 kts | 60° |
| 2026-05-05 16:39 | 12.53705 | -7.94372 | 1260 ft | 62 kts | 60° |
| 2026-05-05 16:39 | 12.53892 | -7.94016 | 1260 ft | 55 kts | 60° |
| 2026-05-05 16:39 | 12.54072 | -7.93699 | 1260 ft | 44 kts | 59° |
| 2026-05-05 16:39 | 12.54175 | -7.93512 | 1260 ft | 14 kts | 59° |
| 2026-05-05 16:40 | 12.54222 | -7.93475 | 1260 ft | 3 kts | 43° |
| 2026-05-05 16:40 | 12.54228 | -7.93461 | 1260 ft | 2 kts | 88° |
| 2026-05-05 16:40 | 12.54216 | -7.93447 | 1260 ft | 3 kts | 171° |
| 2026-05-05 16:40 | 12.54196 | -7.93470 | 1260 ft | 9 kts | 248° |
| 2026-05-05 16:41 | 12.54151 | -7.93564 | 1260 ft | 19 kts | 245° |
| 2026-05-05 16:41 | 12.54080 | -7.93708 | 1260 ft | 25 kts | 239° |
| 2026-05-05 16:41 | 12.53983 | -7.93873 | 1260 ft | 26 kts | 239° |
| 2026-05-05 16:41 | 12.53890 | -7.94031 | 1260 ft | 27 kts | 239° |
| 2026-05-05 16:42 | 12.53808 | -7.94173 | 1260 ft | 17 kts | 240° |
| 2026-05-05 16:42 | 12.53785 | -7.94251 | 1260 ft | 11 kts | 291° |
| 2026-05-05 16:42 | 12.53852 | -7.94301 | 1260 ft | 14 kts | 330° |
| 2026-05-05 16:42 | 12.53945 | -7.94355 | 1260 ft | 15 kts | 330° |
| 2026-05-05 16:43 | 12.54004 | -7.94385 | 1260 ft | 6 kts | 358° |
| 2026-05-05 16:43 | 12.54036 | -7.94360 | 1260 ft | 4 kts | 43° |
| 2026-05-05 16:43 | 12.54061 | -7.94356 | 1260 ft | 5 kts | 346° |
| 2026-05-05 16:43 | 12.54098 | -7.94378 | 1260 ft | 4 kts | 326° |
| 2026-05-05 16:44 | 12.54116 | -7.94390 | 1260 ft | 3 kts | 329° |
| 2026-05-05 16:44 | 12.54123 | -7.94394 | 1260 ft | 2 kts | 329° |
| 2026-05-05 16:44 | 12.54126 | -7.94396 | 1260 ft | 0 kts | 329° |